Time;durP1;ratioP1;P1;durP2;ratioP2;P2;SDS_P1;SDS_P2;PMS_P1;PMS_P2;Temp;Humidity;BMP_temperature;BMP_pressure;BME280_temperature;BME280_humidity;BME280_pressure;Samples;Min_cycle;Max_cycle;Signal;HPM_P1;HPM_P2
2024/04/06 00:00:34;;;;;;;3.53;1.90;;;;;;;13.20;100.00;97337.78;4997515;28;20469;-82
2024/04/06 00:03:00;;;;;;;5.15;1.90;;;;;;;13.18;100.00;97340.72;4997262;28;20398;-82
2024/04/06 00:05:26;;;;;;;4.18;1.95;;;;;;;13.16;100.00;97334.84;4997757;28;20486;-82
2024/04/06 00:07:52;;;;;;;4.15;2.10;;;;;;;13.14;100.00;97331.69;4997678;28;20481;-80
2024/04/06 00:10:19;;;;;;;3.75;1.80;;;;;;;13.11;100.00;97338.31;4998285;28;20399;-80
2024/04/06 00:12:45;;;;;;;3.85;1.63;;;;;;;13.08;100.00;97333.50;4998287;28;20450;-80
2024/04/06 00:15:12;;;;;;;4.32;1.70;;;;;;;13.08;100.00;97328.19;4997614;28;20776;-80
2024/04/06 00:17:38;;;;;;;3.80;1.90;;;;;;;13.06;100.00;97333.00;4997927;28;20946;-82
2024/04/06 00:20:05;;;;;;;4.68;1.88;;;;;;;13.03;100.00;97322.09;4997566;28;20522;-83
2024/04/06 00:22:32;;;;;;;4.22;1.80;;;;;;;12.99;100.00;97327.16;4997757;28;20410;-82
2024/04/06 00:24:58;;;;;;;6.78;2.10;;;;;;;13.00;100.00;97325.31;4997926;28;20402;-82
2024/04/06 00:27:24;;;;;;;3.97;2.07;;;;;;;12.97;100.00;97328.50;4997881;28;20422;-82
2024/04/06 00:29:50;;;;;;;3.15;1.90;;;;;;;12.99;100.00;97331.69;4997219;28;20421;-81
2024/04/06 00:32:18;;;;;;;3.58;1.73;;;;;;;12.98;100.00;97330.09;4998029;28;20872;-80
2024/04/06 00:34:44;;;;;;;6.73;1.77;;;;;;;12.95;100.00;97331.41;4997806;28;20402;-82
2024/04/06 00:37:10;;;;;;;5.10;1.70;;;;;;;12.90;100.00;97331.41;4997690;28;20403;-81
2024/04/06 00:39:37;;;;;;;5.10;1.90;;;;;;;12.90;100.00;97335.94;4998923;28;20414;-84
2024/04/06 00:42:04;;;;;;;3.05;1.65;;;;;;;12.87;100.00;97349.75;4998329;28;20402;-83
2024/04/06 00:44:30;;;;;;;1.98;1.67;;;;;;;12.76;100.00;97335.69;4998466;28;20406;-80
2024/04/06 00:47:02;;;;;;;2.75;1.83;;;;;;;12.81;100.00;97346.28;4998049;28;20880;-83
2024/04/06 00:49:29;;;;;;;4.53;1.60;;;;;;;12.75;100.00;97357.97;4997731;28;20899;-83
2024/04/06 00:51:55;;;;;;;5.00;1.80;;;;;;;12.74;100.00;97357.19;5000197;28;20416;-82
2024/04/06 00:54:23;;;;;;;3.33;1.77;;;;;;;12.72;100.00;97356.66;4998888;28;20402;-82
2024/04/06 00:56:49;;;;;;;3.97;1.93;;;;;;;12.68;100.00;97352.94;4998162;28;20410;-83
2024/04/06 00:59:16;;;;;;;5.82;1.60;;;;;;;12.68;100.00;97362.75;4998480;28;20430;-83
2024/04/06 01:01:42;;;;;;;4.60;1.83;;;;;;;12.65;100.00;97366.72;4998352;28;20403;-83
2024/04/06 01:04:08;;;;;;;4.03;1.90;;;;;;;12.64;100.00;97369.66;5002102;28;20483;-82
2024/04/06 01:06:36;;;;;;;3.95;2.00;;;;;;;12.60;100.00;97371.25;4999110;28;20406;-82
2024/04/06 01:09:03;;;;;;;3.35;1.70;;;;;;;12.59;100.00;97370.44;5006685;28;20783;-80
2024/04/06 01:11:29;;;;;;;3.38;1.63;;;;;;;12.55;100.00;97364.09;5009295;28;20430;-80
2024/04/06 01:13:55;;;;;;;3.03;1.70;;;;;;;12.55;100.00;97363.28;4997805;28;20406;-80
2024/04/06 01:16:21;;;;;;;2.88;1.90;;;;;;;12.48;100.00;97366.19;4997096;28;20410;-82
2024/04/06 01:18:47;;;;;;;3.80;1.85;;;;;;;12.43;100.00;97355.56;4996881;28;20965;-82
2024/04/06 01:21:13;;;;;;;8.02;2.50;;;;;;;12.46;100.00;97360.34;4997072;28;20399;-81
2024/04/06 01:23:43;;;;;;;3.67;1.70;;;;;;;12.38;100.00;97353.69;4996940;28;20402;-82
2024/04/06 01:26:10;;;;;;;4.23;2.10;;;;;;;12.44;100.00;97362.47;4997173;28;20938;-83
2024/04/06 01:28:36;;;;;;;2.60;1.70;;;;;;;12.38;100.00;97363.53;4997590;28;20422;-80
2024/04/06 01:31:03;;;;;;;5.70;2.08;;;;;;;12.40;100.00;97354.22;4997819;28;20481;-82
2024/04/06 01:33:29;;;;;;;6.60;1.80;;;;;;;12.46;100.00;97356.91;4997359;28;20449;-81
2024/04/06 01:35:55;;;;;;;4.63;2.45;;;;;;;12.46;100.00;97351.59;4997543;28;20895;-83
2024/04/06 01:38:21;;;;;;;4.18;1.60;;;;;;;12.41;100.00;97360.31;4998090;28;20433;-82
2024/04/06 01:40:47;;;;;;;5.17;2.17;;;;;;;12.38;100.00;97364.31;4997881;28;20461;-82
2024/04/06 01:43:15;;;;;;;4.82;1.80;;;;;;;12.31;100.00;97366.44;4997956;28;20864;-83
2024/04/06 01:45:41;;;;;;;6.40;2.05;;;;;;;12.25;100.00;97375.44;4997869;28;20465;-83
2024/04/06 01:48:07;;;;;;;3.03;1.65;;;;;;;12.20;100.00;97375.41;4998416;28;20429;-83
2024/04/06 01:50:33;;;;;;;3.57;1.70;;;;;;;12.21;100.00;97377.00;5000180;28;20406;-83
2024/04/06 01:52:59;;;;;;;5.40;1.88;;;;;;;12.22;100.00;97380.47;5001972;28;20414;-82
2024/04/06 01:55:26;;;;;;;2.72;1.92;;;;;;;12.16;100.00;97378.84;5017881;28;20547;-85
2024/04/06 01:57:52;;;;;;;3.20;1.70;;;;;;;12.09;100.00;97375.66;5018140;28;20390;-84
2024/04/06 02:00:19;;;;;;;3.85;1.77;;;;;;;12.16;100.00;97365.59;5011682;28;20443;-83
2024/04/06 02:02:45;;;;;;;6.38;2.08;;;;;;;12.12;100.00;97367.16;5010026;28;20502;-83
2024/04/06 02:05:12;;;;;;;3.35;1.98;;;;;;;11.99;100.00;97369.25;5010394;28;20935;-82
2024/04/06 02:07:38;;;;;;;3.80;1.92;;;;;;;12.07;100.00;97361.84;5009907;28;20426;-83
2024/04/06 02:10:05;;;;;;;4.05;2.00;;;;;;;12.09;100.00;97365.03;5011214;28;20402;-82
2024/04/06 02:12:31;;;;;;;5.05;2.40;;;;;;;12.07;100.00;97354.69;5012094;28;20463;-84
2024/04/06 02:14:57;;;;;;;3.38;1.70;;;;;;;12.06;100.00;97353.09;5015012;28;20468;-84
2024/04/06 02:17:24;;;;;;;3.40;1.52;;;;;;;12.10;100.00;97348.88;5016217;28;20466;-82
2024/04/06 02:19:51;;;;;;;4.43;1.50;;;;;;;12.09;100.00;97344.63;5011600;28;20705;-82
2024/04/06 02:22:17;;;;;;;5.70;1.92;;;;;;;12.07;100.00;97348.56;5006694;28;20401;-82
2024/04/06 02:24:43;;;;;;;3.88;1.88;;;;;;;12.06;100.00;97349.63;5006779;28;20406;-80
2024/04/06 02:27:09;;;;;;;3.97;1.80;;;;;;;12.02;100.00;97347.53;5006872;28;20402;-83
2024/04/06 02:29:35;;;;;;;1.80;1.55;;;;;;;11.92;100.00;97355.44;5008386;28;20454;-82
2024/04/06 02:32:03;;;;;;;3.03;1.80;;;;;;;11.86;100.00;97351.16;5008538;28;20399;-83
2024/04/06 02:34:30;;;;;;;2.13;1.70;;;;;;;11.83;100.00;97364.94;5009118;28;20851;-83
2024/04/06 02:36:56;;;;;;;1.90;1.40;;;;;;;11.77;100.00;97352.72;5009060;28;20410;-83
2024/04/06 02:39:23;;;;;;;1.70;1.50;;;;;;;11.74;100.00;97357.69;5009329;28;20521;-82
2024/04/06 02:41:49;;;;;;;3.72;1.77;;;;;;;11.74;100.00;97363.84;5009472;28;20415;-81
2024/04/06 02:44:15;;;;;;;1.73;1.45;;;;;;;11.73;100.00;97354.25;5009603;28;20398;-80
2024/04/06 02:46:41;;;;;;;2.47;1.77;;;;;;;11.74;100.00;97352.41;5009986;28;20425;-83
2024/04/06 02:49:07;;;;;;;3.97;1.80;;;;;;;11.75;100.00;97354.81;5009778;28;20473;-83
2024/04/06 02:51:35;;;;;;;4.50;2.05;;;;;;;11.75;100.00;97349.53;5010291;28;20406;-83
2024/04/06 02:54:01;;;;;;;3.75;2.40;;;;;;;11.82;100.00;97343.97;5011469;28;20403;-84
2024/04/06 02:56:27;;;;;;;9.20;2.50;;;;;;;11.87;100.00;97334.19;5011288;28;20425;-83
2024/04/06 02:58:53;;;;;;;6.55;2.40;;;;;;;11.95;100.00;97333.66;5010820;28;20406;-82
2024/04/06 03:01:19;;;;;;;7.78;2.25;;;;;;;12.00;100.00;97328.41;5011415;28;20417;-83
2024/04/06 03:03:45;;;;;;;5.77;1.90;;;;;;;12.03;100.00;97329.72;5011817;28;20398;-82
2024/04/06 03:06:12;;;;;;;3.42;2.00;;;;;;;12.08;100.00;97327.09;5003824;28;20406;-82
2024/04/06 03:08:39;;;;;;;9.85;2.17;;;;;;;12.08;100.00;97334.25;5001496;28;20437;-82
2024/04/06 03:11:05;;;;;;;3.35;2.10;;;;;;;12.08;100.00;97342.22;5000139;28;20410;-82
2024/04/06 03:13:31;;;;;;;3.63;1.70;;;;;;;12.09;100.00;97341.97;4998115;28;20406;-82
2024/04/06 03:15:58;;;;;;;2.42;1.73;;;;;;;12.03;100.00;97346.44;4996800;28;20490;-81
2024/04/06 03:18:24;;;;;;;4.70;1.80;;;;;;;11.97;100.00;97357.28;4996151;28;20497;-83
2024/04/06 03:20:50;;;;;;;2.72;1.70;;;;;;;11.88;100.00;97362.28;5005009;28;20405;-80
2024/04/06 03:23:16;;;;;;;4.20;2.10;;;;;;;11.82;100.00;97363.34;5000628;28;20417;-81
2024/04/06 03:25:43;;;;;;;4.43;2.10;;;;;;;11.76;100.00;97368.88;4997709;28;20472;-82
2024/04/06 03:28:10;;;;;;;3.67;1.90;;;;;;;11.69;100.00;97369.09;4997926;28;20430;-80
2024/04/06 03:30:36;;;;;;;6.65;2.30;;;;;;;11.68;100.00;97372.00;4997650;28;20828;-82
2024/04/06 03:33:02;;;;;;;3.13;1.75;;;;;;;11.65;100.00;97362.72;4998365;28;20403;-81
2024/04/06 03:35:28;;;;;;;5.00;2.00;;;;;;;11.64;100.00;97364.56;4997350;28;20410;-80
2024/04/06 03:37:54;;;;;;;4.07;2.08;;;;;;;11.63;100.00;97357.66;4998118;28;20410;-80
2024/04/06 03:40:21;;;;;;;3.27;1.90;;;;;;;11.59;100.00;97361.06;4997445;28;20485;-81
2024/04/06 03:42:58;;;;;;;4.57;1.90;;;;;;;11.55;100.00;97352.84;4997851;28;20517;-81
2024/04/06 03:45:25;;;;;;;4.60;2.15;;;;;;;11.52;100.00;97342.75;4998246;28;20387;-81
2024/04/06 03:47:51;;;;;;;3.65;2.10;;;;;;;11.51;100.00;97343.00;4997789;28;20900;-83
2024/04/06 03:50:18;;;;;;;3.90;2.08;;;;;;;11.52;100.00;97337.47;4997063;28;20426;-82
2024/04/06 03:52:46;;;;;;;3.83;2.00;;;;;;;11.51;100.00;97337.72;4997294;28;20391;-83
2024/04/06 03:55:12;;;;;;;6.25;2.10;;;;;;;11.52;100.00;97340.09;4997815;28;20978;-83
2024/04/06 03:57:38;;;;;;;5.43;1.98;;;;;;;11.55;100.00;97330.84;4998121;28;20412;-81
2024/04/06 04:00:11;;;;;;;5.68;2.20;;;;;;;11.55;100.00;97330.84;4997405;28;20430;-81
2024/04/06 04:02:38;;;;;;;4.72;2.15;;;;;;;11.54;100.00;97343.31;4998059;28;20399;-80
2024/04/06 04:05:05;;;;;;;3.80;2.23;;;;;;;11.53;100.00;97340.91;4998231;28;20489;-84
2024/04/06 04:07:32;;;;;;;5.40;2.05;;;;;;;11.51;100.00;97337.72;4998012;28;20493;-83
2024/04/06 04:10:01;;;;;;;8.27;2.33;;;;;;;11.44;100.00;97345.09;4997930;28;20398;-84
2024/04/06 04:12:27;;;;;;;3.78;2.00;;;;;;;11.43;100.00;97343.50;4998496;28;20812;-82
2024/04/06 04:14:53;;;;;;;6.75;2.92;;;;;;;11.43;100.00;97348.78;4998611;28;20858;-83
2024/04/06 04:17:21;;;;;;;4.07;2.67;;;;;;;11.48;100.00;97343.53;4998808;28;20485;-82
2024/04/06 04:19:47;;;;;;;4.30;2.03;;;;;;;11.47;100.00;97336.63;5001026;28;20425;-83
2024/04/06 04:22:13;;;;;;;6.50;2.30;;;;;;;11.50;100.00;97331.59;4998936;28;20441;-79
2024/04/06 04:24:40;;;;;;;4.50;2.03;;;;;;;11.51;100.00;97329.75;4998541;28;20399;-81
2024/04/06 04:27:06;;;;;;;5.50;2.40;;;;;;;11.56;100.00;97327.16;4998629;28;20751;-82
2024/04/06 04:29:32;;;;;;;4.30;1.90;;;;;;;11.61;100.00;97332.47;4998519;28;20418;-83
2024/04/06 04:31:58;;;;;;;4.18;2.80;;;;;;;11.61;100.00;97340.41;4999085;28;20495;-80
2024/04/06 04:34:26;;;;;;;2.92;1.92;;;;;;;11.55;100.00;97336.94;5002365;28;20401;-80
2024/04/06 04:36:52;;;;;;;3.05;1.88;;;;;;;11.62;100.00;97349.97;5016743;28;20865;-83
2024/04/06 04:39:18;;;;;;;4.17;2.00;;;;;;;11.58;100.00;97349.66;5018334;28;20488;-82
2024/04/06 04:41:44;;;;;;;5.15;2.00;;;;;;;11.58;100.00;97351.53;5019590;28;20405;-81
2024/04/06 04:44:11;;;;;;;4.20;2.17;;;;;;;11.57;100.00;97347.31;5019241;28;20397;-84
2024/04/06 04:46:37;;;;;;;5.90;2.00;;;;;;;11.67;100.00;97354.50;5018379;28;20436;-84
2024/04/06 04:49:03;;;;;;;5.03;2.20;;;;;;;11.63;100.00;97347.06;5018383;28;20433;-84
2024/04/06 04:51:31;;;;;;;10.18;2.25;;;;;;;11.64;100.00;97346.00;5022527;28;20400;-84
2024/04/06 04:53:57;;;;;;;2.85;2.03;;;;;;;11.79;100.00;97347.16;5021525;28;20401;-83
2024/04/06 04:56:23;;;;;;;4.20;2.25;;;;;;;11.75;100.00;97351.38;5018377;28;20923;-84
2024/04/06 04:58:50;;;;;;;3.55;2.28;;;;;;;11.67;100.00;97346.53;5018344;28;20452;-83
2024/04/06 05:01:16;;;;;;;7.47;2.20;;;;;;;11.72;100.00;97351.88;5021859;28;20393;-83
2024/04/06 05:03:43;;;;;;;4.68;2.25;;;;;;;11.68;100.00;97359.53;5023987;28;20397;-84
2024/04/06 05:06:09;;;;;;;3.78;2.13;;;;;;;11.73;100.00;97356.91;5020655;28;20435;-84
2024/04/06 05:08:37;;;;;;;8.25;2.05;;;;;;;11.73;100.00;97351.59;5018152;28;21065;-82
2024/04/06 05:11:03;;;;;;;5.70;2.00;;;;;;;11.76;100.00;97361.72;5018297;28;20504;-83
2024/04/06 05:13:29;;;;;;;3.70;1.80;;;;;;;11.73;100.00;97359.56;5021566;28;20870;-83
2024/04/06 05:15:57;;;;;;;2.78;1.83;;;;;;;11.77;100.00;97360.69;5017186;28;20909;-84
2024/04/06 05:18:23;;;;;;;3.63;2.10;;;;;;;11.78;100.00;97359.63;5017189;28;20455;-82
2024/04/06 05:20:50;;;;;;;5.45;2.60;;;;;;;11.76;100.00;97363.59;5018425;28;20429;-83
2024/04/06 05:23:16;;;;;;;4.70;2.20;;;;;;;11.78;100.00;97364.13;5018664;28;20404;-83
2024/04/06 05:25:45;;;;;;;4.00;1.67;;;;;;;11.70;100.00;97369.88;5019411;28;20393;-83
2024/04/06 05:28:12;;;;;;;2.95;1.75;;;;;;;11.72;100.00;97375.75;5031516;28;20432;-83
2024/04/06 05:30:38;;;;;;;5.13;1.77;;;;;;;11.70;100.00;97377.84;5038101;28;20391;-84
2024/04/06 05:33:05;;;;;;;3.50;1.90;;;;;;;11.73;100.00;97387.94;5034534;28;20401;-80
2024/04/06 05:35:31;;;;;;;3.08;1.98;;;;;;;11.80;100.00;97384.00;5005396;28;20407;-81
2024/04/06 05:37:57;;;;;;;5.47;2.00;;;;;;;11.89;100.00;97385.13;5003787;28;20986;-81
2024/04/06 05:40:24;;;;;;;2.28;1.70;;;;;;;11.92;100.00;97392.56;5003887;28;20875;-82
2024/04/06 05:42:51;;;;;;;6.00;1.92;;;;;;;12.07;100.00;97393.69;5003379;28;20456;-83
2024/04/06 05:45:17;;;;;;;4.45;1.92;;;;;;;12.22;100.00;97391.06;5002773;28;20399;-81
2024/04/06 05:47:43;;;;;;;3.83;1.80;;;;;;;12.25;100.00;97394.03;5003883;28;20399;-82
2024/04/06 05:50:10;;;;;;;3.03;1.63;;;;;;;12.39;100.00;97389.00;5003675;28;20410;-81
2024/04/06 05:52:36;;;;;;;4.95;1.55;;;;;;;12.40;100.00;97390.59;5004283;28;20406;-82
2024/04/06 05:55:05;;;;;;;2.97;1.60;;;;;;;12.43;100.00;97390.06;5004601;28;20421;-79
2024/04/06 05:57:31;;;;;;;2.45;1.65;;;;;;;12.54;100.00;97402.31;5005171;28;20430;-81
2024/04/06 05:59:58;;;;;;;3.40;1.60;;;;;;;12.59;100.00;97394.34;5007251;28;20425;-82
2024/04/06 06:02:25;;;;;;;3.42;1.60;;;;;;;12.59;100.00;97393.56;5003751;28;20828;-83
2024/04/06 06:04:51;;;;;;;2.80;1.70;;;;;;;12.59;100.00;97386.38;5004713;28;20433;-83
2024/04/06 06:07:17;;;;;;;2.83;1.70;;;;;;;12.63;100.00;97394.63;5000919;28;20399;-83
2024/04/06 06:09:43;;;;;;;4.13;1.77;;;;;;;12.67;100.00;97396.50;5000844;28;20503;-82
2024/04/06 06:12:09;;;;;;;2.50;1.50;;;;;;;12.66;100.00;97394.09;5004018;28;20405;-83
2024/04/06 06:14:35;;;;;;;2.75;1.67;;;;;;;12.78;100.00;97397.28;5007718;28;20411;-81
2024/04/06 06:17:03;;;;;;;3.55;1.92;;;;;;;12.83;100.00;97396.50;5009992;28;20390;-81
2024/04/06 06:19:29;;;;;;;4.80;1.47;;;;;;;12.93;100.00;97391.22;5007120;28;20470;-81
2024/04/06 06:21:55;;;;;;;3.70;1.50;;;;;;;13.01;100.00;97372.03;5007911;28;20406;-80
2024/04/06 06:24:21;;;;;;;2.63;1.67;;;;;;;13.32;100.00;97362.22;5007382;28;20494;-80
2024/04/06 06:26:48;;;;;;;2.60;1.43;;;;;;;13.35;100.00;97351.06;5007339;28;20428;-80
2024/04/06 06:29:14;;;;;;;2.28;1.73;;;;;;;13.49;100.00;97357.41;5007779;28;20418;-83
2024/04/06 06:31:40;;;;;;;3.65;1.55;;;;;;;13.70;100.00;97364.25;5008805;28;20506;-82
2024/04/06 06:34:08;;;;;;;2.03;1.38;;;;;;;13.75;100.00;97372.22;5006050;28;20410;-79
2024/04/06 06:36:34;;;;;;;2.90;1.40;;;;;;;13.80;100.00;97374.06;4991866;28;20449;-79
2024/04/06 06:39:00;;;;;;;2.30;1.17;;;;;;;13.84;100.00;97369.78;4987094;28;20442;-79
2024/04/06 06:41:26;;;;;;;2.88;1.48;;;;;;;13.89;100.00;97369.78;4983329;28;20466;-80
2024/04/06 06:43:52;;;;;;;1.92;1.27;;;;;;;13.92;100.00;97372.69;4977690;28;20411;-79
2024/04/06 06:46:18;;;;;;;2.97;1.50;;;;;;;13.93;100.00;97376.13;4993527;28;20410;-80
2024/04/06 06:48:45;;;;;;;1.85;1.42;;;;;;;13.98;100.00;97383.31;4994464;28;20410;-81
2024/04/06 06:51:12;;;;;;;2.20;1.48;;;;;;;14.03;100.00;97388.63;4994856;28;20413;-79
2024/04/06 06:53:38;;;;;;;2.22;1.30;;;;;;;14.06;100.00;97393.41;4997738;28;20398;-80
2024/04/06 06:56:05;;;;;;;1.98;1.25;;;;;;;14.09;100.00;97392.84;5011241;28;20429;-79
2024/04/06 06:58:33;;;;;;;2.70;1.30;;;;;;;14.14;100.00;97409.59;5008266;28;20406;-81
2024/04/06 07:00:59;;;;;;;2.58;1.20;;;;;;;14.22;100.00;97409.00;4999125;28;20463;-81
2024/04/06 07:03:25;;;;;;;1.10;1.00;;;;;;;14.25;100.00;97418.34;4999953;28;20409;-80
2024/04/06 07:05:51;;;;;;;1.50;1.00;;;;;;;14.28;100.00;97421.22;4999945;28;20464;-78
2024/04/06 07:08:19;;;;;;;2.60;1.33;;;;;;;14.26;100.00;97417.25;4999288;28;20796;-80
2024/04/06 07:10:45;;;;;;;1.25;1.00;;;;;;;14.29;100.00;97417.50;4999123;28;20408;-81
2024/04/06 07:13:11;;;;;;;2.15;1.25;;;;;;;14.30;100.00;97419.09;4999090;28;20472;-81
2024/04/06 07:15:37;;;;;;;1.58;1.20;;;;;;;14.34;100.00;97419.34;4998571;28;20398;-82
2024/04/06 07:18:04;;;;;;;1.17;1.08;;;;;;;14.44;100.00;97421.19;5001802;28;20489;-78
2024/04/06 07:20:31;;;;;;;2.22;1.50;;;;;;;14.50;100.00;97412.91;4999038;28;20406;-80
2024/04/06 07:22:57;;;;;;;3.27;1.70;;;;;;;14.56;100.00;97408.34;4999697;28;20472;-81
2024/04/06 07:25:24;;;;;;;2.47;1.42;;;;;;;14.64;100.00;97405.91;5002662;28;20421;-80
2024/04/06 07:27:50;;;;;;;1.43;1.27;;;;;;;14.77;100.00;97407.16;4993860;28;20479;-79
2024/04/06 07:30:17;;;;;;;2.28;1.40;;;;;;;14.85;100.00;97413.75;4999326;28;20402;-80
2024/04/06 07:32:43;;;;;;;3.97;1.30;;;;;;;15.02;100.00;97404.31;4992416;28;20400;-78
2024/04/06 07:35:10;;;;;;;4.28;1.30;;;;;;;15.12;100.00;97416.72;5002190;28;20393;-80
2024/04/06 07:37:37;;;;;;;2.30;1.40;;;;;;;15.29;100.00;97424.34;5000522;28;1697686;-79
2024/04/06 07:40:04;;;;;;;3.30;1.30;;;;;;;15.39;100.00;97422.38;5000895;28;20453;-80
2024/04/06 07:42:32;;;;;;;1.92;1.20;;;;;;;15.48;100.00;97423.38;5000541;28;20712;-80
2024/04/06 07:44:58;;;;;;;4.03;1.38;;;;;;;15.75;100.00;97416.72;5000636;28;20490;-79
2024/04/06 07:47:25;;;;;;;4.07;1.60;;;;;;;15.88;100.00;97422.19;5001464;28;20409;-81
2024/04/06 07:49:51;;;;;;;5.35;1.40;;;;;;;16.10;100.00;97416.31;5005936;28;20411;-81
2024/04/06 07:52:18;;;;;;;4.95;1.30;;;;;;;16.39;100.00;97420.78;5017205;28;20749;-80
2024/04/06 07:54:44;;;;;;;3.47;1.40;;;;;;;16.51;100.00;97411.25;5004434;28;20760;-81
2024/04/06 07:57:10;;;;;;;2.67;1.10;;;;;;;16.52;100.00;97409.38;5022426;28;20404;-81
2024/04/06 07:59:37;;;;;;;1.88;1.42;;;;;;;16.54;100.00;97413.34;5014278;28;20445;-80
2024/04/06 08:02:04;;;;;;;2.00;1.10;;;;;;;16.59;100.00;97407.16;5016368;28;20406;-78
2024/04/06 08:04:30;;;;;;;5.13;1.85;;;;;;;16.73;100.00;97415.28;5016673;28;20425;-80
2024/04/06 08:06:56;;;;;;;2.50;1.60;;;;;;;17.29;100.00;97413.28;4993854;28;20455;-80
2024/04/06 08:09:22;;;;;;;2.95;1.25;;;;;;;17.26;100.00;97411.22;4992604;28;20426;-81
2024/04/06 08:11:48;;;;;;;5.75;1.65;;;;;;;17.19;100.00;97421.50;4998876;28;20457;-78
2024/04/06 08:14:14;;;;;;;2.85;1.30;;;;;;;17.19;100.00;97423.38;5005776;28;20538;-79
2024/04/06 08:16:42;;;;;;;3.72;1.40;;;;;;;17.18;100.00;97419.91;5009410;28;20474;-81
2024/04/06 08:19:08;;;;;;;5.25;1.45;;;;;;;17.35;100.00;97417.50;5004437;28;20433;-79
2024/04/06 08:21:34;;;;;;;3.03;1.27;;;;;;;17.69;100.00;97406.47;5001176;28;20406;-79
2024/04/06 08:24:00;;;;;;;5.15;1.20;;;;;;;17.90;100.00;97406.09;5008724;28;20509;-81
2024/04/06 08:26:26;;;;;;;3.30;1.40;;;;;;;17.86;100.00;97389.84;5000554;28;20457;-80
2024/04/06 08:28:52;;;;;;;1.90;1.30;;;;;;;18.05;100.00;97392.41;5006152;28;20502;-80
2024/04/06 08:31:19;;;;;;;2.63;1.30;;;;;;;18.25;100.00;97396.56;5005645;28;20428;-78
2024/04/06 08:33:46;;;;;;;2.63;1.10;;;;;;;18.66;100.00;97386.56;5002797;28;20429;-79
2024/04/06 08:36:12;;;;;;;2.37;1.27;;;;;;;18.42;100.00;97394.03;5000352;28;20474;-82
2024/04/06 08:38:38;;;;;;;3.20;1.10;;;;;;;18.47;100.00;97386.69;5003734;28;20445;-80
2024/04/06 08:41:09;;;;;;;2.47;1.00;;;;;;;18.41;100.00;97379.06;5004431;28;20811;-78
2024/04/06 08:43:39;;;;;;;3.47;1.37;;;;;;;18.52;100.00;97370.50;4999051;28;20402;-80
2024/04/06 08:46:06;;;;;;;5.10;1.40;;;;;;;18.55;100.00;97375.25;5006208;28;20395;-79
2024/04/06 08:48:34;;;;;;;1.23;0.90;;;;;;;18.57;100.00;97384.91;5002123;28;20465;-78
2024/04/06 08:51:04;;;;;;;2.40;1.00;;;;;;;18.55;100.00;97382.50;4999399;28;20394;-79
2024/04/06 08:53:32;;;;;;;2.70;1.02;;;;;;;18.73;100.00;97384.25;4998293;28;20399;-77
2024/04/06 08:56:04;;;;;;;2.60;1.08;;;;;;;18.87;100.00;97390.34;4995806;28;20900;-77
2024/04/06 08:58:31;;;;;;;3.08;0.95;;;;;;;19.03;100.00;97382.75;5002402;28;20402;-79
2024/04/06 09:00:57;;;;;;;1.80;1.00;;;;;;;19.33;100.00;97390.03;5009490;28;20398;-82
2024/04/06 09:03:24;;;;;;;2.20;1.10;;;;;;;19.79;100.00;97377.34;5011229;28;20414;-79
2024/04/06 09:05:50;;;;;;;1.75;0.80;;;;;;;20.33;100.00;97376.91;5012023;28;20402;-80
2024/04/06 09:08:17;;;;;;;3.80;0.98;;;;;;;21.00;100.00;97378.34;5012942;28;20486;-80
2024/04/06 09:10:46;;;;;;;2.23;0.83;;;;;;;21.46;100.00;97362.28;5011524;28;20402;-79
2024/04/06 09:13:13;;;;;;;1.50;0.80;;;;;;;21.83;100.00;97363.41;5012958;28;20425;-79
2024/04/06 09:15:39;;;;;;;3.08;0.95;;;;;;;22.00;100.00;97359.88;5004216;28;20397;-79
2024/04/06 09:18:06;;;;;;;1.35;0.90;;;;;;;22.25;100.00;97353.53;5006681;28;20407;-79
2024/04/06 09:20:32;;;;;;;4.30;1.40;;;;;;;22.30;100.00;97355.25;5011808;28;20402;-81
2024/04/06 09:22:59;;;;;;;2.93;0.97;;;;;;;22.76;100.00;97344.31;5013126;28;20402;-81
2024/04/06 09:25:27;;;;;;;1.80;0.80;;;;;;;23.14;100.00;97344.09;5012289;28;20413;-82
2024/04/06 09:27:53;;;;;;;2.55;0.93;;;;;;;23.09;100.00;97343.50;5012406;28;20406;-80
2024/04/06 09:30:28;;;;;;;2.00;1.00;;;;;;;22.99;100.00;97338.53;5012042;28;20414;-81
2024/04/06 09:32:56;;;;;;;3.95;1.20;;;;;;;22.91;98.25;97352.91;5011842;28;20437;-80
2024/04/06 09:35:24;;;;;;;2.92;0.80;;;;;;;22.84;98.38;97344.56;5012465;28;20406;-81
2024/04/06 09:37:52;;;;;;;3.80;0.77;;;;;;;23.05;100.00;97348.81;5011328;28;20422;-80
2024/04/06 09:40:19;;;;;;;1.83;0.73;;;;;;;23.22;100.00;97342.44;5012170;28;20395;-80
2024/04/06 09:42:47;;;;;;;2.50;0.80;;;;;;;23.34;100.00;97347.88;5012333;28;20462;-82
2024/04/06 09:45:14;;;;;;;1.98;0.85;;;;;;;23.50;100.00;97331.81;5010658;28;20824;-80
2024/04/06 09:47:40;;;;;;;1.00;0.70;;;;;;;23.60;100.00;97334.09;5010950;28;20395;-80
2024/04/06 09:50:07;;;;;;;2.27;0.90;;;;;;;24.21;100.00;97332.16;5010331;28;20414;-79
2024/04/06 09:52:34;;;;;;;1.98;0.90;;;;;;;24.96;100.00;97337.84;5010188;28;20402;-80
2024/04/06 09:55:00;;;;;;;1.52;0.80;;;;;;;25.28;97.81;97321.66;5011199;28;20399;-79
2024/04/06 09:57:27;;;;;;;2.17;0.75;;;;;;;25.24;100.00;97327.00;5011213;28;20418;-79
2024/04/06 10:00:01;;;;;;;1.37;0.80;;;;;;;24.90;92.44;97331.09;5010277;28;20433;-79
2024/04/06 10:02:32;;;;;;;1.55;0.90;;;;;;;25.09;95.86;97327.75;5010440;28;20462;-81
2024/04/06 10:05:01;;;;;;;2.00;0.88;;;;;;;24.67;83.13;97332.75;5007931;28;20407;-78
2024/04/06 10:07:30;;;;;;;1.33;0.80;;;;;;;25.43;83.69;97327.09;5009687;28;20510;-80
2024/04/06 10:10:00;;;;;;;2.17;1.15;;;;;;;25.49;85.35;97324.91;5009540;28;20422;-80
2024/04/06 10:12:37;;;;;;;1.80;0.70;;;;;;;25.27;98.79;97317.38;5009680;28;20458;-80
2024/04/06 10:15:08;;;;;;;1.40;0.60;;;;;;;25.23;100.00;97320.00;5012288;28;20412;-81
2024/04/06 10:17:42;;;;;;;2.10;0.95;;;;;;;25.59;85.17;97321.72;5009999;28;20394;-79
2024/04/06 10:20:10;;;;;;;2.42;0.90;;;;;;;25.39;78.72;97322.72;5009517;28;20456;-79
2024/04/06 10:22:44;;;;;;;0.90;0.60;;;;;;;25.77;80.67;97320.22;5009165;28;20406;-81
2024/04/06 10:25:11;;;;;;;2.10;0.70;;;;;;;25.63;84.72;97316.38;5010463;28;20457;-81
2024/04/06 10:27:38;;;;;;;0.90;0.53;;;;;;;26.57;84.00;97311.56;5012385;28;20398;-80
2024/04/06 10:30:07;;;;;;;2.20;0.80;;;;;;;27.32;76.04;97308.34;5012240;28;20764;-79
2024/04/06 10:32:34;;;;;;;2.47;0.60;;;;;;;27.55;71.70;97311.09;5010289;28;20398;-80
2024/04/06 10:35:00;;;;;;;2.00;0.80;;;;;;;27.28;72.82;97298.59;5017360;28;20405;-78
2024/04/06 10:37:26;;;;;;;1.67;0.75;;;;;;;27.96;77.20;97298.56;5029231;28;20408;-79
2024/04/06 10:39:52;;;;;;;2.67;0.80;;;;;;;28.53;77.55;97296.63;5027990;28;20408;-81
2024/04/06 10:42:24;;;;;;;2.78;0.82;;;;;;;29.17;75.51;97287.22;5030375;28;20396;-82
2024/04/06 10:44:50;;;;;;;0.95;0.70;;;;;;;29.11;75.35;97294.19;5030747;28;20396;-80
2024/04/06 10:47:17;;;;;;;1.20;0.73;;;;;;;29.62;68.78;97280.63;5030135;28;20408;-80
2024/04/06 10:49:46;;;;;;;1.33;0.63;;;;;;;29.78;84.37;97285.03;5030437;28;20475;-81
2024/04/06 10:52:12;;;;;;;1.95;0.82;;;;;;;30.41;77.83;97281.94;5031345;28;20472;-81
2024/04/06 10:54:39;;;;;;;1.58;0.60;;;;;;;30.63;79.60;97272.69;5032130;28;20407;-81
2024/04/06 10:57:05;;;;;;;1.20;0.70;;;;;;;30.59;69.52;97290.25;5030771;28;20401;-80
2024/04/06 10:59:31;;;;;;;4.60;1.00;;;;;;;30.41;71.58;97273.75;5030648;28;20415;-81
2024/04/06 11:01:58;;;;;;;1.75;1.00;;;;;;;30.25;60.82;97278.75;5030675;28;20428;-79
2024/04/06 11:04:26;;;;;;;1.83;0.80;;;;;;;29.87;69.10;97283.56;5030235;28;20423;-80
2024/04/06 11:06:52;;;;;;;2.83;0.98;;;;;;;29.56;61.96;97290.34;5030949;28;20401;-79
2024/04/06 11:09:18;;;;;;;3.35;1.10;;;;;;;29.83;60.81;97276.53;5029678;28;20416;-80
2024/04/06 11:11:45;;;;;;;1.88;0.88;;;;;;;29.86;62.45;97281.97;5031068;28;20409;-80
2024/04/06 11:14:11;;;;;;;2.80;0.82;;;;;;;29.80;63.83;97272.59;5031714;28;20404;-80
2024/04/06 11:16:41;;;;;;;1.30;0.73;;;;;;;29.55;58.72;97280.59;5030345;28;20425;-81
2024/04/06 11:19:08;;;;;;;2.30;0.80;;;;;;;29.53;65.76;97271.22;5030742;28;20431;-80
2024/04/06 11:21:36;;;;;;;4.22;1.70;;;;;;;30.15;63.02;97269.31;5030950;28;20435;-80
2024/04/06 11:24:03;;;;;;;2.38;0.70;;;;;;;30.48;68.82;97273.00;5031448;28;20401;-79